Colerain Township, Ohio
Current Conditions -  °F | °C
As of 4:55 PM on Monday 20 Oct 2014 (Local Time) from KI67 Reporting Station
Overcast Overcast  
Wind Chill: 64°   Ceiling: 3900
Heat Index: 64°   Visibility: 10mi
Dew Point: 50°   Wind: 8mph
Humidity: 59%   Direction: 230°SW
Pressure: 29.85"   Gusts: NA
Location:  39.2201°N, 84.6531°W
Report Text: KI67 202055Z AUTO 23007KT 10SM BKN039 BKN047 OVC055 18/10 A2985 RMK AO1
Loading
Personal Weather Stations






























Interactive Weather Map
Tropical Storm Tracking
New forecast layout! Learn more

10-Day Weather Forecast

Advertisements
Track Severe Weather on mobile